createdAt,value
2017-06-25T00:02:28.034Z,5.62
2017-06-25T00:04:59.569Z,5.20
2017-06-25T00:07:31.137Z,5.87
2017-06-25T00:10:06.285Z,6.10
2017-06-25T00:12:37.767Z,6.15
2017-06-25T00:15:13.310Z,5.65
2017-06-25T00:17:44.900Z,6.47
2017-06-25T00:20:19.952Z,5.85
2017-06-25T00:22:51.735Z,5.60
2017-06-25T00:25:23.225Z,5.37
2017-06-25T00:27:54.776Z,6.05
2017-06-25T00:30:26.153Z,5.78
2017-06-25T00:32:57.723Z,5.40
2017-06-25T00:35:32.826Z,4.95
2017-06-25T00:38:08.046Z,4.72
2017-06-25T00:40:44.845Z,4.72
2017-06-25T00:43:16.102Z,4.62
2017-06-25T00:45:51.208Z,4.80
2017-06-25T00:48:27.557Z,4.68
2017-06-25T00:51:00.124Z,5.20
2017-06-25T00:53:31.377Z,4.75
2017-06-25T00:56:07.344Z,5.03
2017-06-25T00:58:43.439Z,5.47
2017-06-25T01:01:14.880Z,4.72
2017-06-25T01:03:54.947Z,5.20
2017-06-25T01:06:29.968Z,4.87
2017-06-25T01:09:01.745Z,5.65
2017-06-25T01:11:33.732Z,4.80
2017-06-25T01:14:05.202Z,5.78
2017-06-25T01:16:40.266Z,4.65
2017-06-25T01:19:12.206Z,5.10
2017-06-25T01:21:44.078Z,5.43
2017-06-25T01:24:19.237Z,5.37
2017-06-25T01:26:55.056Z,4.85
2017-06-25T01:29:26.778Z,4.80
2017-06-25T01:35:22.778Z,5.13
2017-06-25T01:37:58.605Z,6.20
2017-06-25T01:40:34.903Z,5.20
2017-06-25T01:43:11.217Z,5.07
2017-06-25T01:45:42.629Z,5.30
2017-06-25T01:48:18.622Z,5.03
2017-06-25T01:50:50.589Z,5.22
2017-06-25T01:53:22.542Z,5.30
2017-06-25T01:55:54.397Z,5.97
2017-06-25T01:58:29.448Z,5.18
2017-06-25T02:01:01.429Z,5.50
2017-06-25T02:03:37.805Z,5.15
2017-06-25T02:06:13.069Z,4.95
2017-06-25T02:08:44.630Z,5.18
2017-06-25T02:11:20.550Z,4.82
2017-06-25T02:13:56.592Z,5.10
2017-06-25T02:16:28.473Z,5.00
2017-06-25T02:19:03.797Z,5.00
2017-06-25T02:21:39.041Z,5.55
2017-06-25T02:24:17.365Z,5.30
2017-06-25T02:26:53.126Z,4.57
2017-06-25T02:29:28.196Z,5.18
2017-06-25T02:32:04.087Z,5.22
2017-06-25T02:34:39.131Z,5.12
2017-06-25T02:37:14.318Z,5.45
2017-06-25T02:39:49.381Z,5.25
2017-06-25T02:42:21.130Z,5.30
2017-06-25T02:44:52.672Z,5.30
2017-06-25T02:47:29.609Z,5.35
2017-06-25T02:50:00.857Z,5.15
2017-06-25T02:52:39.105Z,5.12
2017-06-25T02:55:10.366Z,5.28
2017-06-25T02:57:41.850Z,5.85
2017-06-25T03:00:18.079Z,5.20
2017-06-25T03:02:49.845Z,5.20
2017-06-25T03:05:21.444Z,5.00
2017-06-25T03:07:52.812Z,4.35
2017-06-25T03:10:29.192Z,5.18
2017-06-25T03:13:00.403Z,5.18
2017-06-25T03:15:35.452Z,4.50
2017-06-25T03:18:06.965Z,4.90
2017-06-25T03:20:42.624Z,5.25
2017-06-25T03:23:17.724Z,4.85
2017-06-25T03:25:49.687Z,4.45
2017-06-25T03:28:21.054Z,5.05
2017-06-25T03:30:52.630Z,5.10
2017-06-25T03:33:23.875Z,5.10
2017-06-25T03:35:56.409Z,5.35
2017-06-25T03:38:32.569Z,4.68
2017-06-25T03:41:08.508Z,4.78
2017-06-25T03:43:39.933Z,5.00
2017-06-25T03:46:11.650Z,4.95
2017-06-25T03:48:46.841Z,5.37
2017-06-25T03:51:22.749Z,5.65
2017-06-25T03:53:54.336Z,4.43
2017-06-25T03:56:26.212Z,4.75
2017-06-25T03:58:57.920Z,5.50
2017-06-25T04:01:29.268Z,4.30
2017-06-25T04:04:04.293Z,4.85
2017-06-25T04:06:36.861Z,4.15
2017-06-25T04:09:08.225Z,4.82
2017-06-25T04:11:43.255Z,4.47
2017-06-25T04:14:19.599Z,4.90
2017-06-25T04:16:51.291Z,4.75
2017-06-25T04:19:22.921Z,4.60
2017-06-25T04:21:54.953Z,4.80
2017-06-25T04:24:26.549Z,4.30
2017-06-25T04:27:01.720Z,4.65
2017-06-25T04:29:33.194Z,4.75
2017-06-25T04:32:09.143Z,4.85
2017-06-25T04:34:40.743Z,5.32
2017-06-25T04:37:12.253Z,4.40
2017-06-25T04:39:44.233Z,4.90
2017-06-25T04:42:14.047Z,4.72
2017-06-25T04:44:45.394Z,4.65
2017-06-25T04:47:17.233Z,4.82
2017-06-25T04:49:48.779Z,4.70
2017-06-25T04:52:20.718Z,4.70
2017-06-25T04:54:52.216Z,5.00
2017-06-25T04:57:24.265Z,4.85
2017-06-25T04:59:55.610Z,4.12
2017-06-25T05:02:33.399Z,4.45
2017-06-25T05:05:04.702Z,4.90
2017-06-25T05:07:40.177Z,5.40
2017-06-25T05:10:11.516Z,4.72
2017-06-25T05:12:47.948Z,4.40
2017-06-25T05:15:19.282Z,4.22
2017-06-25T05:17:54.420Z,3.87
2017-06-25T05:20:25.870Z,4.47
2017-06-25T05:23:02.295Z,3.87
2017-06-25T05:25:38.571Z,4.45
2017-06-25T05:28:14.472Z,4.60
2017-06-25T05:30:46.209Z,4.23
2017-06-25T05:33:21.492Z,4.10
2017-06-25T05:35:53.219Z,4.13
2017-06-25T05:38:25.013Z,4.00
2017-06-25T05:41:00.813Z,4.30
2017-06-25T05:43:32.170Z,4.25
2017-06-25T05:46:03.491Z,4.05
2017-06-25T05:48:34.937Z,4.10
2017-06-25T05:51:06.569Z,4.03
2017-06-25T05:53:37.654Z,4.18
2017-06-25T05:56:09.640Z,3.80
2017-06-25T05:58:45.171Z,4.12
2017-06-25T06:01:17.019Z,4.40
2017-06-25T06:03:52.041Z,4.27
2017-06-25T06:06:23.800Z,4.00
2017-06-25T06:08:55.705Z,3.90
2017-06-25T06:11:31.584Z,4.23
2017-06-25T06:14:02.733Z,4.77
2017-06-25T06:16:34.719Z,4.43
2017-06-25T06:19:06.580Z,4.12
2017-06-25T06:21:38.121Z,3.77
2017-06-25T06:24:09.765Z,3.67
2017-06-25T06:26:40.964Z,4.33
2017-06-25T06:29:13.428Z,3.87
2017-06-25T06:31:45.265Z,3.73
2017-06-25T06:34:20.330Z,4.00
2017-06-25T06:36:52.225Z,4.13
2017-06-25T06:39:28.175Z,3.97
2017-06-25T06:42:00.176Z,3.60
2017-06-25T06:44:31.984Z,3.77
2017-06-25T06:47:07.839Z,4.40
2017-06-25T06:49:43.789Z,3.60
2017-06-25T06:52:14.832Z,3.97
2017-06-25T06:54:46.736Z,3.60
2017-06-25T06:57:18.687Z,3.78
2017-06-25T06:59:50.450Z,3.47
2017-06-25T07:02:25.948Z,3.50
2017-06-25T07:05:02.175Z,3.60
2017-06-25T07:07:33.806Z,3.27
2017-06-25T07:10:05.696Z,3.40
2017-06-25T07:12:37.316Z,3.90
2017-06-25T07:15:09.069Z,3.43
2017-06-25T07:17:40.500Z,3.60
2017-06-25T07:20:11.836Z,4.23
2017-06-25T07:22:43.949Z,3.47
2017-06-25T07:25:33.277Z,3.60
2017-06-25T07:28:14.996Z,3.80
2017-06-25T07:30:55.576Z,4.00
2017-06-25T07:33:34.368Z,3.77
2017-06-25T07:36:09.780Z,3.10
2017-06-25T07:38:49.126Z,3.53
2017-06-25T07:41:21.718Z,3.20
2017-06-25T07:44:01.239Z,3.30
2017-06-25T07:46:33.411Z,3.40
2017-06-25T07:49:10.500Z,3.00
2017-06-25T07:51:48.452Z,3.40
2017-06-25T07:54:24.138Z,3.47
2017-06-25T07:56:55.443Z,2.87
2017-06-25T07:59:32.629Z,2.87
2017-06-25T08:02:04.401Z,2.63
2017-06-25T08:04:37.386Z,4.10
2017-06-25T08:07:08.588Z,2.97
2017-06-25T08:09:39.816Z,2.80
2017-06-25T08:12:12.622Z,3.10
2017-06-25T08:14:48.868Z,2.60
2017-06-25T08:17:25.021Z,2.80
2017-06-25T08:19:56.816Z,3.17
2017-06-25T08:22:28.775Z,3.00
2017-06-25T08:25:03.926Z,3.50
2017-06-25T08:27:39.142Z,2.87
2017-06-25T08:30:16.870Z,2.90
2017-06-25T08:32:51.994Z,3.10
2017-06-25T08:35:23.858Z,3.00
2017-06-25T08:37:55.325Z,3.00
2017-06-25T08:40:27.054Z,2.60
2017-06-25T08:43:03.334Z,2.70
2017-06-25T08:45:35.239Z,2.27
2017-06-25T08:48:06.593Z,2.63
2017-06-25T08:50:42.495Z,2.70
2017-06-25T08:53:18.158Z,2.97
2017-06-25T08:55:46.337Z,2.97
2017-06-25T08:58:18.145Z,2.60
2017-06-25T09:00:54.564Z,2.67
2017-06-25T09:03:26.158Z,2.90
2017-06-25T09:06:01.689Z,2.67
2017-06-25T09:08:33.285Z,2.43
2017-06-25T09:11:01.403Z,2.67
2017-06-25T09:13:37.173Z,2.40
2017-06-25T09:16:19.513Z,2.23
2017-06-25T09:19:00.506Z,2.33
2017-06-25T09:21:37.507Z,2.70
2017-06-25T09:27:34.686Z,1.97
2017-06-25T09:30:13.187Z,1.90
2017-06-25T09:32:45.285Z,2.40
2017-06-25T09:35:17.481Z,2.63
2017-06-25T09:37:52.710Z,2.47
2017-06-25T09:40:28.056Z,2.50
2017-06-25T09:43:05.777Z,2.30
2017-06-25T09:45:46.621Z,2.10
2017-06-25T09:48:22.408Z,2.00
2017-06-25T09:50:59.014Z,2.30
2017-06-25T09:53:30.433Z,2.30
2017-06-25T09:56:06.478Z,2.47
2017-06-25T09:58:38.693Z,2.50
2017-06-25T10:01:12.872Z,2.03
2017-06-25T10:03:45.133Z,2.60
2017-06-25T10:06:16.443Z,2.30
2017-06-25T10:09:05.967Z,2.30
2017-06-25T10:11:38.791Z,2.63
2017-06-25T10:14:14.608Z,2.70
2017-06-25T10:16:56.106Z,3.20
2017-06-25T10:19:37.518Z,2.70
2017-06-25T10:22:10.250Z,2.70
2017-06-25T10:24:46.525Z,2.17
2017-06-25T10:27:22.589Z,2.20
2017-06-25T10:29:54.335Z,2.20
2017-06-25T10:32:29.477Z,2.33
2017-06-25T10:35:00.968Z,2.30
2017-06-25T10:37:46.846Z,2.20
2017-06-25T10:40:19.552Z,2.37
2017-06-25T10:42:54.921Z,2.40
2017-06-25T10:45:31.762Z,2.80
2017-06-25T10:48:07.097Z,2.80
2017-06-25T10:50:42.774Z,2.50
2017-06-25T10:53:21.322Z,2.90
2017-06-25T10:55:52.433Z,3.77
2017-06-25T10:58:27.541Z,3.33
2017-06-25T11:01:03.730Z,3.27
2017-06-25T11:03:35.956Z,2.80
2017-06-25T11:06:12.859Z,3.43
2017-06-25T11:08:48.766Z,2.70
2017-06-25T11:11:25.627Z,2.73
2017-06-25T11:14:06.903Z,2.57
2017-06-25T11:16:42.673Z,2.43
2017-06-25T11:19:11.397Z,2.60
2017-06-25T11:21:46.971Z,2.47
2017-06-25T11:27:49.787Z,2.47
2017-06-25T11:30:38.854Z,3.10
2017-06-25T11:33:20.460Z,2.70
2017-06-25T11:35:58.677Z,2.83
2017-06-25T11:38:37.079Z,2.60
2017-06-25T11:41:22.372Z,2.27
2017-06-25T11:44:00.876Z,2.40
2017-06-25T11:46:41.931Z,2.67
2017-06-25T11:49:13.318Z,2.73
2017-06-25T11:51:58.236Z,2.80
2017-06-25T11:54:38.758Z,2.50
2017-06-25T11:57:17.202Z,2.60
2017-06-25T12:00:11.814Z,2.80
2017-06-25T12:02:50.886Z,3.53
2017-06-25T12:09:03.918Z,3.00
2017-06-25T12:11:35.854Z,3.53
2017-06-25T12:14:14.567Z,2.93
2017-06-25T12:20:14.218Z,3.10
2017-06-25T12:23:08.660Z,3.33
2017-06-25T12:25:44.806Z,2.80
2017-06-25T12:28:19.958Z,3.43
2017-06-25T12:30:55.425Z,2.93
2017-06-25T12:33:31.546Z,3.00
2017-06-25T12:36:06.846Z,3.27
2017-06-25T12:38:40.057Z,2.90
2017-06-25T12:41:11.763Z,3.20
2017-06-25T12:44:28.160Z,3.50
2017-06-25T12:53:49.651Z,3.10
2017-06-25T12:56:25.571Z,3.03
2017-06-25T13:02:22.224Z,3.43
2017-06-25T13:05:08.954Z,2.77
2017-06-25T13:08:00.964Z,3.30
2017-06-25T13:10:32.320Z,2.77
2017-06-25T13:13:08.069Z,3.00
2017-06-25T13:15:41.260Z,3.00
2017-06-25T13:18:21.924Z,2.73
2017-06-25T13:21:07.482Z,3.67
2017-06-25T13:23:41.922Z,8.70
2017-06-25T13:26:31.011Z,14.50
2017-06-25T13:29:34.511Z,3.10
2017-06-25T13:32:10.744Z,10.53
2017-06-25T13:34:55.364Z,12.53
2017-06-25T13:37:30.813Z,2.93
2017-06-25T13:46:43.151Z,2.57
2017-06-25T13:49:32.640Z,3.00
2017-06-25T13:52:18.406Z,3.37
2017-06-25T13:54:55.174Z,3.00
2017-06-25T13:57:30.976Z,2.50
2017-06-25T14:00:06.920Z,2.90
2017-06-25T14:02:48.740Z,3.50
2017-06-25T14:05:24.293Z,2.83
2017-06-25T14:07:55.888Z,3.73
2017-06-25T14:10:31.514Z,2.77
2017-06-25T14:13:03.206Z,2.73
2017-06-25T14:15:35.070Z,3.07
2017-06-25T14:18:06.874Z,3.00
2017-06-25T14:20:42.479Z,2.73
2017-06-25T14:23:18.049Z,2.80
2017-06-25T14:25:50.107Z,2.90
2017-06-25T14:28:18.204Z,2.20
2017-06-25T14:30:53.495Z,2.40
2017-06-25T14:33:25.144Z,3.20
2017-06-25T14:36:02.114Z,2.50
2017-06-25T14:38:37.493Z,2.57
2017-06-25T14:41:13.065Z,2.23
2017-06-25T14:43:48.637Z,2.33
2017-06-25T14:46:47.405Z,2.40
2017-06-25T14:49:24.992Z,3.97
2017-06-25T14:52:00.114Z,2.77
2017-06-25T14:54:50.272Z,2.00
2017-06-25T14:57:53.401Z,2.97
2017-06-25T15:00:29.144Z,2.90
2017-06-25T15:03:07.238Z,2.60
2017-06-25T15:06:27.496Z,3.63
2017-06-25T15:09:18.122Z,3.17
2017-06-25T15:11:49.480Z,3.27
2017-06-25T15:14:21.402Z,3.00
2017-06-25T15:16:52.655Z,2.60
2017-06-25T15:19:24.558Z,2.60
2017-06-25T15:21:59.933Z,2.80
2017-06-25T15:24:31.640Z,2.43
2017-06-25T15:27:07.893Z,2.63
2017-06-25T15:29:39.197Z,2.73
2017-06-25T15:32:15.093Z,2.90
2017-06-25T15:34:50.549Z,3.00
2017-06-25T15:37:26.117Z,2.60
2017-06-25T15:39:55.966Z,2.40
2017-06-25T15:42:31.404Z,3.60
2017-06-25T15:45:03.464Z,2.90
2017-06-25T15:47:38.529Z,2.50
2017-06-25T15:50:15.142Z,2.50
2017-06-25T15:52:50.153Z,2.63
2017-06-25T15:55:25.934Z,2.60
2017-06-25T15:58:02.354Z,2.53
2017-06-25T16:00:33.909Z,2.90
2017-06-25T16:03:10.095Z,2.80
2017-06-25T16:05:41.802Z,2.80
2017-06-25T16:08:16.861Z,2.23
2017-06-25T16:10:48.096Z,2.60
2017-06-25T16:13:19.523Z,2.80
2017-06-25T16:15:51.226Z,2.97
2017-06-25T16:18:22.970Z,2.50
2017-06-25T16:20:55.098Z,2.10
2017-06-25T16:23:26.852Z,2.20
2017-06-25T16:26:02.040Z,2.30
2017-06-25T16:28:33.659Z,2.60
2017-06-25T16:31:09.794Z,2.63
2017-06-25T16:33:41.638Z,2.30
2017-06-25T16:36:13.477Z,2.77
2017-06-25T16:38:44.891Z,2.53
2017-06-25T16:41:20.884Z,2.47
2017-06-25T16:43:52.211Z,2.40
2017-06-25T16:46:29.243Z,2.53
2017-06-25T16:49:00.533Z,2.73
2017-06-25T16:51:36.262Z,3.50
2017-06-25T16:54:08.001Z,2.37
2017-06-25T16:56:43.275Z,2.60
2017-06-25T16:59:18.448Z,2.80
2017-06-25T17:01:53.617Z,2.20
2017-06-25T17:04:25.109Z,2.40
2017-06-25T17:06:56.865Z,2.40
2017-06-25T17:09:28.286Z,2.97
2017-06-25T17:12:03.874Z,2.63
2017-06-25T17:14:35.821Z,2.40
2017-06-25T17:17:07.750Z,2.57
2017-06-25T17:19:42.790Z,2.67
2017-06-25T17:22:14.139Z,2.43
2017-06-25T17:24:45.951Z,2.17
2017-06-25T17:27:17.561Z,3.00
2017-06-25T17:29:48.910Z,2.37
2017-06-25T17:32:24.729Z,2.90
2017-06-25T17:34:56.517Z,3.10
2017-06-25T17:37:31.599Z,2.50
2017-06-25T17:40:03.579Z,2.67
2017-06-25T17:42:35.404Z,2.53
2017-06-25T17:45:10.769Z,2.40
2017-06-25T17:47:47.297Z,2.60
2017-06-25T17:50:19.092Z,2.60
2017-06-25T17:52:50.686Z,2.87
2017-06-25T17:55:22.343Z,2.70
2017-06-25T17:57:53.869Z,2.40
2017-06-25T18:00:25.646Z,2.40
2017-06-25T18:03:01.090Z,2.10
2017-06-25T18:05:32.542Z,3.33
2017-06-25T18:08:04.396Z,2.00
2017-06-25T18:10:40.465Z,2.23
2017-06-25T18:13:15.501Z,2.30
2017-06-25T18:15:46.958Z,2.60
2017-06-25T18:18:18.707Z,2.20
2017-06-25T18:20:50.041Z,2.60
2017-06-25T18:23:21.247Z,2.20
2017-06-25T18:25:57.554Z,2.00
2017-06-25T18:28:32.863Z,2.43
2017-06-25T18:31:08.915Z,2.30
2017-06-25T18:33:40.933Z,2.50
2017-06-25T18:36:17.238Z,2.50
2017-06-25T18:38:47.177Z,2.30
2017-06-25T18:41:18.608Z,2.37
2017-06-25T18:43:54.453Z,2.30
2017-06-25T18:46:25.998Z,2.70
2017-06-25T18:48:57.560Z,2.63
2017-06-25T18:51:32.778Z,2.17
2017-06-25T18:54:04.182Z,2.37
2017-06-25T18:56:36.170Z,2.50
2017-06-25T18:59:07.238Z,2.60
2017-06-25T19:01:38.641Z,2.53
2017-06-25T19:04:14.001Z,2.60
2017-06-25T19:06:49.654Z,2.60
2017-06-25T19:09:21.359Z,2.50
2017-06-25T19:11:57.599Z,2.70
